»·PEaware :: N444FG KSNA-KCMA

N444FG :: KSNA-KCMA

FLIGHT INFORMATION

Flight Status: Arrived
Operator: Privately registered:
United States
More flights under this callsign
Pilot: Bill F. (18685)
Aircraft: PIPER PA-28R-201 ARROW
(P28R)
More flights by this aircraft type
Origin: KSNA John Wayne-Orange Co
United States
Destination: KCMA Camarillo
United States
More flights between these airports :: More routes between these airports
Route: +SFRA
File this flight plan on PilotEdge
Remarks:
Altitude:
(Current/Filed)
0ft
Speed:
(Current/Filed)
0kts
Departed: 10-Oct-18 08:49 PM
Arrived: 10-Oct-18 09:37 PM
Distance/Time
Traveled:
69nm/0:48
Distance/Time
To Go:
Arrived

Flight Plot

Page will automatically refresh every two minutes.

Flight plan parsing failed; only flown route is shown


Map Options




Map Legend


Flown Route
Filed Route
Departure Airport
Arrival Airport
Navaid (VOR, NDB)
Fix

Horizontal Profiles

Position Reports

Time Latitude Longitude Heading Altitude Ground
Speed
10-Oct-18 20:33 33.667729 -117.870474 220 59ft 0kts
10-Oct-18 20:34 33.667729 -117.870474 220 59ft 0kts
10-Oct-18 20:35 33.667729 -117.870474 220 59ft 0kts
10-Oct-18 20:36 33.667965 -117.870951 301 59ft 4kts
10-Oct-18 20:37 33.668097 -117.871210 308 59ft 0kts
10-Oct-18 20:38 33.668460 -117.871398 4 59ft 7kts
10-Oct-18 20:39 33.670760 -117.869234 42 59ft 8kts
10-Oct-18 20:40 33.673360 -117.867574 46 59ft 0kts
10-Oct-18 20:41 33.673360 -117.867574 46 59ft 0kts
10-Oct-18 20:42 33.673360 -117.867574 46 59ft 0kts
10-Oct-18 20:43 33.673360 -117.867574 46 59ft 0kts
10-Oct-18 20:44 33.673360 -117.867574 46 59ft 0kts
10-Oct-18 20:45 33.673360 -117.867574 46 59ft 0kts
10-Oct-18 20:46 33.673360 -117.867574 46 59ft 0kts
10-Oct-18 20:47 33.673651 -117.867371 27 59ft 9kts
10-Oct-18 20:48 33.678127 -117.864543 26 59ft 18kts
10-Oct-18 20:49 33.679982 -117.863648 298 59ft 0kts
10-Oct-18 20:50 33.679982 -117.863648 298 59ft 0kts
10-Oct-18 20:51 33.679132 -117.864812 203 59ft 46kts
10-Oct-18 20:52 33.666143 -117.883330 253 1143ft 88kts
10-Oct-18 20:53 33.663036 -117.915278 262 2055ft 105kts
10-Oct-18 20:54 33.660676 -117.950067 261 2248ft 100kts
10-Oct-18 20:55 33.662227 -117.981725 276 3484ft 90kts
10-Oct-18 20:56 33.669398 -118.016211 282 4478ft 101kts
10-Oct-18 20:57 33.677157 -118.046894 283 4468ft 122kts
10-Oct-18 20:58 33.687161 -118.086426 283 4467ft 125kts
10-Oct-18 20:59 33.697218 -118.125918 283 4467ft 122kts
10-Oct-18 21:00 33.707079 -118.164553 283 4467ft 121kts
10-Oct-18 21:01 33.720709 -118.208646 296 4467ft 122kts
10-Oct-18 21:02 33.741654 -118.231658 322 4467ft 125kts
10-Oct-18 21:03 33.770445 -118.254889 322 4467ft 125kts
10-Oct-18 21:04 33.799119 -118.278039 322 4467ft 124kts
10-Oct-18 21:05 33.827643 -118.301067 322 4467ft 123kts
10-Oct-18 21:06 33.860842 -118.327738 322 4467ft 123kts
10-Oct-18 21:07 33.884019 -118.346302 322 4467ft 123kts
10-Oct-18 21:08 33.912322 -118.368967 322 4467ft 123kts
10-Oct-18 21:09 33.940880 -118.391807 322 4467ft 124kts
10-Oct-18 21:10 33.969619 -118.414671 323 4467ft 124kts
10-Oct-18 21:11 33.998623 -118.437649 323 4467ft 125kts
10-Oct-18 21:12 34.027242 -118.468979 279 4468ft 120kts
10-Oct-18 21:13 34.032692 -118.508534 276 4467ft 119kts
10-Oct-18 21:14 34.034564 -118.548402 270 4467ft 119kts
10-Oct-18 21:15 34.035143 -118.581647 270 4467ft 119kts
10-Oct-18 21:16 34.035685 -118.621608 270 4480ft 119kts
10-Oct-18 21:17 34.036817 -118.661542 269 4474ft 122kts
10-Oct-18 21:18 34.038219 -118.702653 269 4473ft 123kts
10-Oct-18 21:19 34.039197 -118.743919 262 4472ft 123kts
10-Oct-18 21:20 34.036178 -118.785350 262 4471ft 124kts
10-Oct-18 21:21 34.033280 -118.826866 262 4470ft 124kts
10-Oct-18 21:22 34.030502 -118.868499 262 4470ft 124kts
10-Oct-18 21:23 34.027852 -118.910179 262 4470ft 125kts
10-Oct-18 21:24 34.025330 -118.951968 262 4469ft 125kts
10-Oct-18 21:25 34.026541 -119.001172 271 4469ft 126kts
10-Oct-18 21:26 34.029224 -119.036293 271 4468ft 127kts
10-Oct-18 21:27 34.036758 -119.074224 283 4466ft 109kts
10-Oct-18 21:28 34.040994 -119.105658 229 4466ft 85kts
10-Oct-18 21:29 34.024532 -119.106532 120 4466ft 72kts
10-Oct-18 21:30 34.025409 -119.082800 88 4486ft 92kts
10-Oct-18 21:31 34.028446 -119.045635 68 4464ft 122kts
10-Oct-18 21:32 34.061650 -119.038209 358 4468ft 129kts
10-Oct-18 21:33 34.097126 -119.039162 358 4468ft 129kts
10-Oct-18 21:34 34.129329 -119.040384 1 3811ft 116kts
10-Oct-18 21:35 34.160599 -119.041299 354 2573ft 116kts
10-Oct-18 21:36 34.186740 -119.046322 350 1712ft 83kts
10-Oct-18 21:37 34.207221 -119.058075 317 827ft 81kts
10-Oct-18 21:38 34.213464 -119.079390 270 220ft 64kts
10-Oct-18 21:39 34.213410 -119.095191 225 75ft 19kts
10-Oct-18 21:40 34.211268 -119.095029 123 75ft 14kts
10-Oct-18 21:41 34.210667 -119.094202 33 75ft 0kts
10-Oct-18 21:42 34.210667 -119.094202 33 75ft 0kts
10-Oct-18 21:43 34.210667 -119.094202 33 75ft 0kts
10-Oct-18 21:44 34.210667 -119.094202 33 75ft 0kts
10-Oct-18 21:45 34.210667 -119.094202 33 75ft 0kts
10-Oct-18 21:46 34.210667 -119.094202 33 75ft 0kts
10-Oct-18 21:47 34.210667 -119.094202 33 75ft 0kts
10-Oct-18 21:48 34.210667 -119.094202 33 75ft 0kts
10-Oct-18 21:49 34.210667 -119.094202 33 75ft 0kts

Navigation Log

Ident Type
Flight plan parsing failed, navigation log unavailable